sensor_id;sensor_type;location;lat;lon;timestamp;P1;durP1;ratioP1;P2;durP2;ratioP2
46411;SDS011;32113;42.012;24.870;2023-04-03T00:00:58;2.45;;;1.30;;
46411;SDS011;32113;42.012;24.870;2023-04-03T00:03:24;1.83;;;1.15;;
46411;SDS011;32113;42.012;24.870;2023-04-03T00:05:50;1.83;;;1.10;;
46411;SDS011;32113;42.012;24.870;2023-04-03T00:08:16;1.83;;;0.98;;
46411;SDS011;32113;42.012;24.870;2023-04-03T00:10:41;1.92;;;1.05;;
46411;SDS011;32113;42.012;24.870;2023-04-03T00:13:07;2.22;;;1.00;;
46411;SDS011;32113;42.012;24.870;2023-04-03T00:15:33;1.73;;;0.95;;
46411;SDS011;32113;42.012;24.870;2023-04-03T00:17:59;2.13;;;0.88;;
46411;SDS011;32113;42.012;24.870;2023-04-03T00:20:25;1.88;;;1.00;;
46411;SDS011;32113;42.012;24.870;2023-04-03T00:22:51;1.63;;;0.90;;
46411;SDS011;32113;42.012;24.870;2023-04-03T00:25:16;3.55;;;1.10;;
46411;SDS011;32113;42.012;24.870;2023-04-03T00:27:42;2.70;;;1.33;;
46411;SDS011;32113;42.012;24.870;2023-04-03T00:30:08;2.67;;;1.23;;
46411;SDS011;32113;42.012;24.870;2023-04-03T00:32:38;3.35;;;1.15;;
46411;SDS011;32113;42.012;24.870;2023-04-03T00:35:03;3.50;;;1.10;;
46411;SDS011;32113;42.012;24.870;2023-04-03T00:37:29;3.53;;;1.00;;
46411;SDS011;32113;42.012;24.870;2023-04-03T00:39:55;2.75;;;1.25;;
46411;SDS011;32113;42.012;24.870;2023-04-03T00:42:21;2.58;;;1.27;;
46411;SDS011;32113;42.012;24.870;2023-04-03T00:47:13;1.90;;;0.90;;
46411;SDS011;32113;42.012;24.870;2023-04-03T00:49:40;2.53;;;1.40;;
46411;SDS011;32113;42.012;24.870;2023-04-03T00:52:09;2.83;;;1.48;;
46411;SDS011;32113;42.012;24.870;2023-04-03T00:54:40;3.15;;;1.30;;
46411;SDS011;32113;42.012;24.870;2023-04-03T00:57:06;3.65;;;1.30;;
46411;SDS011;32113;42.012;24.870;2023-04-03T00:59:34;5.32;;;1.30;;
46411;SDS011;32113;42.012;24.870;2023-04-03T01:02:05;2.90;;;1.17;;
46411;SDS011;32113;42.012;24.870;2023-04-03T01:04:32;1.75;;;1.10;;
46411;SDS011;32113;42.012;24.870;2023-04-03T01:07:15;2.95;;;0.85;;
46411;SDS011;32113;42.012;24.870;2023-04-03T01:09:44;1.48;;;0.80;;
46411;SDS011;32113;42.012;24.870;2023-04-03T01:12:19;2.33;;;0.95;;
46411;SDS011;32113;42.012;24.870;2023-04-03T01:14:45;4.63;;;1.20;;
46411;SDS011;32113;42.012;24.870;2023-04-03T01:25:43;3.08;;;1.20;;
46411;SDS011;32113;42.012;24.870;2023-04-03T01:28:13;2.10;;;1.05;;
46411;SDS011;32113;42.012;24.870;2023-04-03T01:30:45;2.28;;;0.85;;
46411;SDS011;32113;42.012;24.870;2023-04-03T01:33:15;2.08;;;1.00;;
46411;SDS011;32113;42.012;24.870;2023-04-03T01:35:40;7.90;;;1.10;;
46411;SDS011;32113;42.012;24.870;2023-04-03T01:38:06;1.85;;;1.05;;
46411;SDS011;32113;42.012;24.870;2023-04-03T01:40:32;2.63;;;0.88;;
46411;SDS011;32113;42.012;24.870;2023-04-03T01:42:57;2.13;;;1.00;;
46411;SDS011;32113;42.012;24.870;2023-04-03T01:45:23;3.10;;;1.17;;
46411;SDS011;32113;42.012;24.870;2023-04-03T01:47:48;2.35;;;1.20;;
46411;SDS011;32113;42.012;24.870;2023-04-03T01:50:14;2.13;;;1.08;;
46411;SDS011;32113;42.012;24.870;2023-04-03T01:52:40;2.33;;;1.00;;
46411;SDS011;32113;42.012;24.870;2023-04-03T01:55:05;2.33;;;1.00;;
46411;SDS011;32113;42.012;24.870;2023-04-03T01:57:31;3.00;;;1.08;;
46411;SDS011;32113;42.012;24.870;2023-04-03T01:59:56;2.15;;;1.00;;
46411;SDS011;32113;42.012;24.870;2023-04-03T02:02:22;5.82;;;0.98;;
46411;SDS011;32113;42.012;24.870;2023-04-03T02:04:47;3.10;;;0.93;;
46411;SDS011;32113;42.012;24.870;2023-04-03T02:07:13;3.33;;;0.90;;
46411;SDS011;32113;42.012;24.870;2023-04-03T02:09:38;6.03;;;1.08;;
46411;SDS011;32113;42.012;24.870;2023-04-03T02:12:04;1.88;;;0.95;;
46411;SDS011;32113;42.012;24.870;2023-04-03T02:14:30;4.45;;;1.15;;
46411;SDS011;32113;42.012;24.870;2023-04-03T02:16:55;2.95;;;0.98;;
46411;SDS011;32113;42.012;24.870;2023-04-03T02:19:21;1.92;;;0.93;;
46411;SDS011;32113;42.012;24.870;2023-04-03T02:21:46;1.80;;;1.10;;
46411;SDS011;32113;42.012;24.870;2023-04-03T02:24:12;2.30;;;1.00;;
46411;SDS011;32113;42.012;24.870;2023-04-03T02:26:37;4.80;;;1.20;;
46411;SDS011;32113;42.012;24.870;2023-04-03T02:29:03;2.53;;;1.02;;
46411;SDS011;32113;42.012;24.870;2023-04-03T02:31:28;1.50;;;1.10;;
46411;SDS011;32113;42.012;24.870;2023-04-03T02:33:53;2.42;;;1.13;;
46411;SDS011;32113;42.012;24.870;2023-04-03T02:36:19;4.43;;;1.33;;
46411;SDS011;32113;42.012;24.870;2023-04-03T02:38:44;2.08;;;0.82;;
46411;SDS011;32113;42.012;24.870;2023-04-03T02:41:11;5.18;;;0.93;;
46411;SDS011;32113;42.012;24.870;2023-04-03T02:43:37;2.08;;;0.90;;
46411;SDS011;32113;42.012;24.870;2023-04-03T02:46:03;5.13;;;1.13;;
46411;SDS011;32113;42.012;24.870;2023-04-03T02:48:29;2.42;;;0.90;;
46411;SDS011;32113;42.012;24.870;2023-04-03T02:50:55;4.13;;;1.00;;
46411;SDS011;32113;42.012;24.870;2023-04-03T02:53:21;2.15;;;1.00;;
46411;SDS011;32113;42.012;24.870;2023-04-03T02:55:47;4.05;;;0.90;;
46411;SDS011;32113;42.012;24.870;2023-04-03T02:58:13;3.45;;;1.10;;
46411;SDS011;32113;42.012;24.870;2023-04-03T03:00:39;2.95;;;1.45;;
46411;SDS011;32113;42.012;24.870;2023-04-03T03:03:04;3.20;;;1.70;;
46411;SDS011;32113;42.012;24.870;2023-04-03T03:05:30;2.22;;;1.25;;
46411;SDS011;32113;42.012;24.870;2023-04-03T03:07:55;2.97;;;1.20;;
46411;SDS011;32113;42.012;24.870;2023-04-03T03:10:22;2.13;;;1.08;;
46411;SDS011;32113;42.012;24.870;2023-04-03T03:12:47;2.58;;;1.02;;
46411;SDS011;32113;42.012;24.870;2023-04-03T03:15:13;1.90;;;0.90;;
46411;SDS011;32113;42.012;24.870;2023-04-03T03:17:38;2.50;;;1.15;;
46411;SDS011;32113;42.012;24.870;2023-04-03T03:20:04;3.30;;;0.90;;
46411;SDS011;32113;42.012;24.870;2023-04-03T03:22:31;2.40;;;0.95;;
46411;SDS011;32113;42.012;24.870;2023-04-03T03:24:56;1.55;;;0.85;;
46411;SDS011;32113;42.012;24.870;2023-04-03T03:27:22;3.83;;;0.98;;
46411;SDS011;32113;42.012;24.870;2023-04-03T03:29:47;2.63;;;0.80;;
46411;SDS011;32113;42.012;24.870;2023-04-03T03:32:12;2.13;;;1.00;;
46411;SDS011;32113;42.012;24.870;2023-04-03T03:34:38;3.00;;;1.13;;
46411;SDS011;32113;42.012;24.870;2023-04-03T03:37:03;2.92;;;1.52;;
46411;SDS011;32113;42.012;24.870;2023-04-03T03:39:29;2.47;;;1.10;;
46411;SDS011;32113;42.012;24.870;2023-04-03T03:41:55;2.20;;;1.10;;
46411;SDS011;32113;42.012;24.870;2023-04-03T03:44:20;3.17;;;1.20;;
46411;SDS011;32113;42.012;24.870;2023-04-03T03:46:46;1.83;;;1.10;;
46411;SDS011;32113;42.012;24.870;2023-04-03T03:49:11;3.00;;;0.90;;
46411;SDS011;32113;42.012;24.870;2023-04-03T03:51:37;2.10;;;1.15;;
46411;SDS011;32113;42.012;24.870;2023-04-03T03:54:03;3.05;;;1.10;;
46411;SDS011;32113;42.012;24.870;2023-04-03T03:56:30;3.13;;;0.90;;
46411;SDS011;32113;42.012;24.870;2023-04-03T03:58:55;2.33;;;1.20;;
46411;SDS011;32113;42.012;24.870;2023-04-03T04:01:21;3.17;;;1.13;;
46411;SDS011;32113;42.012;24.870;2023-04-03T04:03:48;1.73;;;1.00;;
46411;SDS011;32113;42.012;24.870;2023-04-03T04:06:14;1.85;;;0.95;;
46411;SDS011;32113;42.012;24.870;2023-04-03T04:08:40;1.98;;;1.15;;
46411;SDS011;32113;42.012;24.870;2023-04-03T04:11:05;2.00;;;0.98;;
46411;SDS011;32113;42.012;24.870;2023-04-03T04:13:31;1.45;;;0.88;;
46411;SDS011;32113;42.012;24.870;2023-04-03T04:15:57;2.60;;;1.02;;
46411;SDS011;32113;42.012;24.870;2023-04-03T04:18:22;1.60;;;0.80;;
46411;SDS011;32113;42.012;24.870;2023-04-03T04:20:48;1.70;;;0.88;;
46411;SDS011;32113;42.012;24.870;2023-04-03T04:23:14;1.20;;;0.80;;
46411;SDS011;32113;42.012;24.870;2023-04-03T04:25:39;2.67;;;1.23;;
46411;SDS011;32113;42.012;24.870;2023-04-03T04:28:05;2.75;;;1.40;;
46411;SDS011;32113;42.012;24.870;2023-04-03T04:30:31;3.33;;;1.30;;
46411;SDS011;32113;42.012;24.870;2023-04-03T04:32:56;3.47;;;1.00;;
46411;SDS011;32113;42.012;24.870;2023-04-03T04:35:21;2.83;;;0.90;;
46411;SDS011;32113;42.012;24.870;2023-04-03T04:37:47;1.88;;;0.82;;
46411;SDS011;32113;42.012;24.870;2023-04-03T04:40:12;1.83;;;1.00;;
46411;SDS011;32113;42.012;24.870;2023-04-03T04:42:38;2.47;;;1.05;;
46411;SDS011;32113;42.012;24.870;2023-04-03T04:45:03;3.92;;;0.90;;
46411;SDS011;32113;42.012;24.870;2023-04-03T04:47:29;2.13;;;1.10;;
46411;SDS011;32113;42.012;24.870;2023-04-03T04:49:55;6.40;;;1.02;;
46411;SDS011;32113;42.012;24.870;2023-04-03T04:52:20;4.38;;;1.45;;
46411;SDS011;32113;42.012;24.870;2023-04-03T04:54:46;1.70;;;0.75;;
46411;SDS011;32113;42.012;24.870;2023-04-03T04:57:11;4.68;;;0.95;;
46411;SDS011;32113;42.012;24.870;2023-04-03T04:59:37;4.15;;;0.90;;
46411;SDS011;32113;42.012;24.870;2023-04-03T05:02:02;3.08;;;0.90;;
46411;SDS011;32113;42.012;24.870;2023-04-03T05:04:27;2.30;;;0.80;;
46411;SDS011;32113;42.012;24.870;2023-04-03T05:06:53;5.53;;;1.10;;
46411;SDS011;32113;42.012;24.870;2023-04-03T05:09:18;1.67;;;1.00;;
46411;SDS011;32113;42.012;24.870;2023-04-03T05:11:45;2.00;;;0.98;;
46411;SDS011;32113;42.012;24.870;2023-04-03T05:14:10;4.70;;;1.10;;
46411;SDS011;32113;42.012;24.870;2023-04-03T05:16:36;2.70;;;1.27;;
46411;SDS011;32113;42.012;24.870;2023-04-03T05:19:02;1.65;;;0.95;;
46411;SDS011;32113;42.012;24.870;2023-04-03T05:21:28;2.47;;;1.10;;
46411;SDS011;32113;42.012;24.870;2023-04-03T05:23:57;6.20;;;1.23;;
46411;SDS011;32113;42.012;24.870;2023-04-03T05:26:23;1.80;;;1.00;;
46411;SDS011;32113;42.012;24.870;2023-04-03T05:28:48;2.65;;;1.25;;
46411;SDS011;32113;42.012;24.870;2023-04-03T05:31:14;4.45;;;2.25;;
46411;SDS011;32113;42.012;24.870;2023-04-03T05:33:39;6.97;;;3.67;;
46411;SDS011;32113;42.012;24.870;2023-04-03T05:36:05;8.38;;;3.78;;
46411;SDS011;32113;42.012;24.870;2023-04-03T05:38:31;5.07;;;2.85;;
46411;SDS011;32113;42.012;24.870;2023-04-03T05:40:56;1.98;;;1.50;;
46411;SDS011;32113;42.012;24.870;2023-04-03T05:43:22;6.55;;;4.65;;
46411;SDS011;32113;42.012;24.870;2023-04-03T05:45:47;8.00;;;4.18;;
46411;SDS011;32113;42.012;24.870;2023-04-03T05:48:13;5.15;;;1.67;;
46411;SDS011;32113;42.012;24.870;2023-04-03T05:50:38;8.25;;;4.57;;
46411;SDS011;32113;42.012;24.870;2023-04-03T05:55:32;3.75;;;1.48;;
46411;SDS011;32113;42.012;24.870;2023-04-03T05:57:57;2.75;;;1.33;;
46411;SDS011;32113;42.012;24.870;2023-04-03T06:00:23;3.58;;;1.50;;
46411;SDS011;32113;42.012;24.870;2023-04-03T06:02:48;2.15;;;1.10;;
46411;SDS011;32113;42.012;24.870;2023-04-03T06:05:14;3.97;;;1.23;;
46411;SDS011;32113;42.012;24.870;2023-04-03T06:07:39;2.50;;;1.52;;
46411;SDS011;32113;42.012;24.870;2023-04-03T06:10:06;3.33;;;2.03;;
46411;SDS011;32113;42.012;24.870;2023-04-03T06:12:32;9.50;;;3.65;;
46411;SDS011;32113;42.012;24.870;2023-04-03T06:14:57;8.65;;;2.45;;
46411;SDS011;32113;42.012;24.870;2023-04-03T06:17:23;5.80;;;2.10;;
46411;SDS011;32113;42.012;24.870;2023-04-03T06:19:48;3.78;;;1.50;;
46411;SDS011;32113;42.012;24.870;2023-04-03T06:22:14;5.75;;;1.58;;
46411;SDS011;32113;42.012;24.870;2023-04-03T06:24:40;2.75;;;1.38;;
46411;SDS011;32113;42.012;24.870;2023-04-03T06:27:06;4.03;;;1.65;;
46411;SDS011;32113;42.012;24.870;2023-04-03T06:29:32;5.72;;;1.90;;
46411;SDS011;32113;42.012;24.870;2023-04-03T06:31:57;3.90;;;1.30;;
46411;SDS011;32113;42.012;24.870;2023-04-03T06:34:23;2.72;;;1.25;;
46411;SDS011;32113;42.012;24.870;2023-04-03T06:36:48;5.82;;;1.30;;
46411;SDS011;32113;42.012;24.870;2023-04-03T06:39:16;6.50;;;1.87;;
46411;SDS011;32113;42.012;24.870;2023-04-03T06:41:45;4.78;;;1.77;;
46411;SDS011;32113;42.012;24.870;2023-04-03T06:44:10;7.05;;;3.85;;
46411;SDS011;32113;42.012;24.870;2023-04-03T06:46:37;5.97;;;3.95;;
46411;SDS011;32113;42.012;24.870;2023-04-03T06:49:03;7.85;;;3.35;;
46411;SDS011;32113;42.012;24.870;2023-04-03T06:51:29;6.55;;;3.38;;
46411;SDS011;32113;42.012;24.870;2023-04-03T06:53:56;7.72;;;2.85;;
46411;SDS011;32113;42.012;24.870;2023-04-03T06:56:23;7.50;;;4.80;;
46411;SDS011;32113;42.012;24.870;2023-04-03T06:58:50;12.57;;;4.68;;
46411;SDS011;32113;42.012;24.870;2023-04-03T07:01:16;10.50;;;4.43;;
46411;SDS011;32113;42.012;24.870;2023-04-03T07:03:44;15.32;;;4.30;;
46411;SDS011;32113;42.012;24.870;2023-04-03T07:06:10;10.77;;;3.55;;
46411;SDS011;32113;42.012;24.870;2023-04-03T07:08:37;18.73;;;4.68;;
46411;SDS011;32113;42.012;24.870;2023-04-03T07:11:03;17.02;;;5.15;;
46411;SDS011;32113;42.012;24.870;2023-04-03T07:13:29;16.60;;;5.68;;
46411;SDS011;32113;42.012;24.870;2023-04-03T07:15:55;16.40;;;4.88;;
46411;SDS011;32113;42.012;24.870;2023-04-03T07:18:21;14.38;;;5.70;;
46411;SDS011;32113;42.012;24.870;2023-04-03T07:20:47;13.52;;;5.00;;
46411;SDS011;32113;42.012;24.870;2023-04-03T07:23:13;12.52;;;5.10;;
46411;SDS011;32113;42.012;24.870;2023-04-03T07:25:42;13.85;;;4.97;;
46411;SDS011;32113;42.012;24.870;2023-04-03T07:28:09;10.13;;;4.40;;
46411;SDS011;32113;42.012;24.870;2023-04-03T07:30:34;7.75;;;3.72;;
46411;SDS011;32113;42.012;24.870;2023-04-03T07:33:00;13.98;;;5.60;;
46411;SDS011;32113;42.012;24.870;2023-04-03T07:35:27;13.53;;;4.97;;
46411;SDS011;32113;42.012;24.870;2023-04-03T07:37:53;14.23;;;5.18;;
46411;SDS011;32113;42.012;24.870;2023-04-03T07:40:18;15.43;;;4.72;;
46411;SDS011;32113;42.012;24.870;2023-04-03T07:42:43;8.48;;;4.13;;
46411;SDS011;32113;42.012;24.870;2023-04-03T07:45:09;14.52;;;4.93;;
46411;SDS011;32113;42.012;24.870;2023-04-03T07:47:35;9.85;;;5.13;;
46411;SDS011;32113;42.012;24.870;2023-04-03T07:50:01;8.25;;;3.03;;
46411;SDS011;32113;42.012;24.870;2023-04-03T07:52:26;20.77;;;5.85;;
46411;SDS011;32113;42.012;24.870;2023-04-03T07:54:52;9.32;;;4.65;;
46411;SDS011;32113;42.012;24.870;2023-04-03T07:57:17;15.20;;;5.38;;
46411;SDS011;32113;42.012;24.870;2023-04-03T07:59:42;11.30;;;5.13;;
46411;SDS011;32113;42.012;24.870;2023-04-03T08:02:09;14.75;;;5.32;;
46411;SDS011;32113;42.012;24.870;2023-04-03T08:04:35;14.13;;;4.25;;
46411;SDS011;32113;42.012;24.870;2023-04-03T08:07:00;15.07;;;4.60;;
46411;SDS011;32113;42.012;24.870;2023-04-03T08:09:26;12.57;;;5.47;;
46411;SDS011;32113;42.012;24.870;2023-04-03T08:11:52;10.93;;;4.30;;
46411;SDS011;32113;42.012;24.870;2023-04-03T08:14:18;9.68;;;3.40;;
46411;SDS011;32113;42.012;24.870;2023-04-03T08:16:45;14.30;;;3.80;;
46411;SDS011;32113;42.012;24.870;2023-04-03T08:19:12;9.00;;;4.22;;
46411;SDS011;32113;42.012;24.870;2023-04-03T08:21:39;15.73;;;5.18;;
46411;SDS011;32113;42.012;24.870;2023-04-03T08:24:06;13.27;;;4.60;;
46411;SDS011;32113;42.012;24.870;2023-04-03T08:26:32;8.75;;;4.32;;
46411;SDS011;32113;42.012;24.870;2023-04-03T08:28:58;8.23;;;4.05;;
46411;SDS011;32113;42.012;24.870;2023-04-03T08:31:23;8.07;;;4.07;;
46411;SDS011;32113;42.012;24.870;2023-04-03T08:33:49;8.10;;;4.50;;
46411;SDS011;32113;42.012;24.870;2023-04-03T08:36:16;8.75;;;5.13;;
46411;SDS011;32113;42.012;24.870;2023-04-03T08:38:44;8.63;;;5.00;;
46411;SDS011;32113;42.012;24.870;2023-04-03T08:49:42;12.73;;;4.50;;
46411;SDS011;32113;42.012;24.870;2023-04-03T08:52:20;9.30;;;4.28;;
46411;SDS011;32113;42.012;24.870;2023-04-03T08:54:53;12.10;;;7.10;;
46411;SDS011;32113;42.012;24.870;2023-04-03T08:57:39;9.30;;;4.18;;
46411;SDS011;32113;42.012;24.870;2023-04-03T09:00:18;7.22;;;4.13;;
46411;SDS011;32113;42.012;24.870;2023-04-03T09:02:47;10.32;;;4.60;;
46411;SDS011;32113;42.012;24.870;2023-04-03T09:07:54;11.18;;;4.20;;
46411;SDS011;32113;42.012;24.870;2023-04-03T09:10:30;8.65;;;4.38;;
46411;SDS011;32113;42.012;24.870;2023-04-03T09:15:35;7.65;;;3.95;;
46411;SDS011;32113;42.012;24.870;2023-04-03T09:18:12;7.72;;;3.92;;
46411;SDS011;32113;42.012;24.870;2023-04-03T09:20:52;7.45;;;4.00;;
46411;SDS011;32113;42.012;24.870;2023-04-03T09:23:21;9.48;;;3.58;;
46411;SDS011;32113;42.012;24.870;2023-04-03T09:25:53;7.15;;;3.33;;
46411;SDS011;32113;42.012;24.870;2023-04-03T09:28:26;8.57;;;3.72;;
46411;SDS011;32113;42.012;24.870;2023-04-03T09:30:52;8.02;;;3.85;;
46411;SDS011;32113;42.012;24.870;2023-04-03T09:33:18;11.35;;;4.70;;
46411;SDS011;32113;42.012;24.870;2023-04-03T09:35:46;7.97;;;4.47;;
46411;SDS011;32113;42.012;24.870;2023-04-03T09:40:39;6.28;;;3.65;;
46411;SDS011;32113;42.012;24.870;2023-04-03T09:45:41;8.60;;;4.25;;
46411;SDS011;32113;42.012;24.870;2023-04-03T09:50:38;8.10;;;3.75;;
46411;SDS011;32113;42.012;24.870;2023-04-03T09:55:51;7.55;;;4.30;;
46411;SDS011;32113;42.012;24.870;2023-04-03T09:58:25;9.18;;;3.65;;
46411;SDS011;32113;42.012;24.870;2023-04-03T10:00:54;7.68;;;3.10;;
46411;SDS011;32113;42.012;24.870;2023-04-03T10:03:28;7.03;;;3.45;;
46411;SDS011;32113;42.012;24.870;2023-04-03T10:06:00;6.53;;;3.50;;
46411;SDS011;32113;42.012;24.870;2023-04-03T10:08:30;6.32;;;3.17;;
46411;SDS011;32113;42.012;24.870;2023-04-03T10:11:08;9.95;;;3.13;;
46411;SDS011;32113;42.012;24.870;2023-04-03T10:13:54;6.65;;;3.83;;
46411;SDS011;32113;42.012;24.870;2023-04-03T10:16:44;6.78;;;4.15;;
46411;SDS011;32113;42.012;24.870;2023-04-03T10:27:44;9.73;;;3.08;;
46411;SDS011;32113;42.012;24.870;2023-04-03T10:30:19;6.57;;;3.10;;
46411;SDS011;32113;42.012;24.870;2023-04-03T10:46:38;3.58;;;2.45;;
46411;SDS011;32113;42.012;24.870;2023-04-03T10:49:11;3.17;;;1.65;;
46411;SDS011;32113;42.012;24.870;2023-04-03T10:54:24;5.57;;;2.22;;
46411;SDS011;32113;42.012;24.870;2023-04-03T10:57:05;6.05;;;2.33;;
46411;SDS011;32113;42.012;24.870;2023-04-03T10:59:46;6.28;;;2.25;;
46411;SDS011;32113;42.012;24.870;2023-04-03T11:02:31;4.32;;;2.40;;
46411;SDS011;32113;42.012;24.870;2023-04-03T11:10:59;4.43;;;2.63;;
46411;SDS011;32113;42.012;24.870;2023-04-03T11:13:33;7.80;;;2.47;;
46411;SDS011;32113;42.012;24.870;2023-04-03T11:16:07;6.85;;;2.95;;
46411;SDS011;32113;42.012;24.870;2023-04-03T11:21:11;5.38;;;3.00;;
46411;SDS011;32113;42.012;24.870;2023-04-03T11:23:41;6.90;;;4.03;;
46411;SDS011;32113;42.012;24.870;2023-04-03T11:26:11;9.45;;;3.33;;
46411;SDS011;32113;42.012;24.870;2023-04-03T11:28:38;9.80;;;4.13;;
46411;SDS011;32113;42.012;24.870;2023-04-03T11:36:33;13.00;;;5.57;;
46411;SDS011;32113;42.012;24.870;2023-04-03T11:39:20;11.05;;;5.13;;
46411;SDS011;32113;42.012;24.870;2023-04-03T11:41:49;8.80;;;4.70;;
46411;SDS011;32113;42.012;24.870;2023-04-03T11:44:32;7.20;;;4.05;;
46411;SDS011;32113;42.012;24.870;2023-04-03T11:47:01;11.93;;;5.72;;
46411;SDS011;32113;42.012;24.870;2023-04-03T12:24:31;12.35;;;5.43;;
46411;SDS011;32113;42.012;24.870;2023-04-03T12:27:17;11.30;;;5.03;;
46411;SDS011;32113;42.012;24.870;2023-04-03T12:29:51;9.25;;;5.45;;
46411;SDS011;32113;42.012;24.870;2023-04-03T12:46:21;6.75;;;3.75;;
46411;SDS011;32113;42.012;24.870;2023-04-03T12:48:49;9.52;;;5.63;;
46411;SDS011;32113;42.012;24.870;2023-04-03T12:54:04;15.90;;;6.85;;
46411;SDS011;32113;42.012;24.870;2023-04-03T12:56:38;12.43;;;5.78;;
46411;SDS011;32113;42.012;24.870;2023-04-03T12:59:14;18.48;;;7.45;;
46411;SDS011;32113;42.012;24.870;2023-04-03T13:01:57;10.93;;;5.88;;
46411;SDS011;32113;42.012;24.870;2023-04-03T13:04:30;11.82;;;6.40;;
46411;SDS011;32113;42.012;24.870;2023-04-03T13:06:56;12.73;;;5.45;;
46411;SDS011;32113;42.012;24.870;2023-04-03T13:09:24;13.38;;;6.50;;
46411;SDS011;32113;42.012;24.870;2023-04-03T13:14:40;11.77;;;6.93;;
46411;SDS011;32113;42.012;24.870;2023-04-03T13:17:17;13.45;;;6.90;;
46411;SDS011;32113;42.012;24.870;2023-04-03T13:19:43;22.48;;;10.38;;
46411;SDS011;32113;42.012;24.870;2023-04-03T13:25:17;14.67;;;8.27;;
46411;SDS011;32113;42.012;24.870;2023-04-03T13:27:45;14.57;;;8.23;;
46411;SDS011;32113;42.012;24.870;2023-04-03T13:30:53;23.83;;;11.60;;
46411;SDS011;32113;42.012;24.870;2023-04-03T13:33:05;28.75;;;15.43;;
46411;SDS011;32113;42.012;24.870;2023-04-03T13:35:43;20.67;;;10.68;;
46411;SDS011;32113;42.012;24.870;2023-04-03T13:40:47;19.40;;;10.82;;
46411;SDS011;32113;42.012;24.870;2023-04-03T13:43:21;20.27;;;10.27;;
46411;SDS011;32113;42.012;24.870;2023-04-03T13:48:34;18.65;;;10.30;;
46411;SDS011;32113;42.012;24.870;2023-04-03T13:51:02;37.30;;;19.70;;
46411;SDS011;32113;42.012;24.870;2023-04-03T13:53:31;24.63;;;13.73;;
46411;SDS011;32113;42.012;24.870;2023-04-03T13:56:06;17.58;;;10.30;;
46411;SDS011;32113;42.012;24.870;2023-04-03T13:58:34;19.05;;;7.50;;
46411;SDS011;32113;42.012;24.870;2023-04-03T14:06:17;25.80;;;11.50;;
46411;SDS011;32113;42.012;24.870;2023-04-03T14:08:43;27.13;;;13.23;;
46411;SDS011;32113;42.012;24.870;2023-04-03T14:13:55;16.73;;;9.15;;
46411;SDS011;32113;42.012;24.870;2023-04-03T14:16:25;16.80;;;9.15;;
46411;SDS011;32113;42.012;24.870;2023-04-03T14:18:54;19.95;;;10.07;;
46411;SDS011;32113;42.012;24.870;2023-04-03T14:21:20;15.23;;;9.30;;
46411;SDS011;32113;42.012;24.870;2023-04-03T14:23:46;16.10;;;10.05;;
46411;SDS011;32113;42.012;24.870;2023-04-03T14:26:13;16.35;;;11.10;;
46411;SDS011;32113;42.012;24.870;2023-04-03T14:28:44;23.77;;;13.02;;
46411;SDS011;32113;42.012;24.870;2023-04-03T14:31:11;24.90;;;12.23;;
46411;SDS011;32113;42.012;24.870;2023-04-03T14:33:38;26.93;;;14.70;;
46411;SDS011;32113;42.012;24.870;2023-04-03T14:36:14;27.92;;;14.45;;
46411;SDS011;32113;42.012;24.870;2023-04-03T14:38:41;43.03;;;22.50;;
46411;SDS011;32113;42.012;24.870;2023-04-03T14:41:10;76.25;;;36.88;;
46411;SDS011;32113;42.012;24.870;2023-04-03T14:43:37;82.90;;;39.05;;
46411;SDS011;32113;42.012;24.870;2023-04-03T14:46:04;78.35;;;37.85;;
46411;SDS011;32113;42.012;24.870;2023-04-03T14:48:30;153.80;;;74.28;;
46411;SDS011;32113;42.012;24.870;2023-04-03T14:50:55;138.98;;;65.05;;
46411;SDS011;32113;42.012;24.870;2023-04-03T14:53:21;60.72;;;30.95;;
46411;SDS011;32113;42.012;24.870;2023-04-03T14:55:51;48.22;;;27.63;;
46411;SDS011;32113;42.012;24.870;2023-04-03T14:58:18;115.10;;;58.97;;
46411;SDS011;32113;42.012;24.870;2023-04-03T15:03:14;43.33;;;23.17;;
46411;SDS011;32113;42.012;24.870;2023-04-03T15:05:43;56.35;;;31.67;;
46411;SDS011;32113;42.012;24.870;2023-04-03T15:11:07;33.65;;;21.48;;
46411;SDS011;32113;42.012;24.870;2023-04-03T15:13:33;56.17;;;30.17;;
46411;SDS011;32113;42.012;24.870;2023-04-03T15:15:58;58.55;;;30.05;;
46411;SDS011;32113;42.012;24.870;2023-04-03T15:18:25;126.60;;;58.25;;
46411;SDS011;32113;42.012;24.870;2023-04-03T15:20:55;120.47;;;60.00;;
46411;SDS011;32113;42.012;24.870;2023-04-03T15:23:21;130.18;;;69.85;;
46411;SDS011;32113;42.012;24.870;2023-04-03T15:25:51;146.73;;;80.65;;
46411;SDS011;32113;42.012;24.870;2023-04-03T15:30:57;101.65;;;47.35;;
46411;SDS011;32113;42.012;24.870;2023-04-03T15:33:23;301.60;;;176.38;;
46411;SDS011;32113;42.012;24.870;2023-04-03T15:35:48;106.32;;;66.00;;
46411;SDS011;32113;42.012;24.870;2023-04-03T15:38:14;115.32;;;98.78;;
46411;SDS011;32113;42.012;24.870;2023-04-03T15:40:40;24.13;;;15.77;;
46411;SDS011;32113;42.012;24.870;2023-04-03T15:43:06;24.92;;;12.50;;
46411;SDS011;32113;42.012;24.870;2023-04-03T15:45:32;32.05;;;18.17;;
46411;SDS011;32113;42.012;24.870;2023-04-03T15:48:00;51.85;;;30.95;;
46411;SDS011;32113;42.012;24.870;2023-04-03T15:50:26;30.50;;;20.23;;
46411;SDS011;32113;42.012;24.870;2023-04-03T15:52:52;43.20;;;25.08;;
46411;SDS011;32113;42.012;24.870;2023-04-03T15:55:23;75.50;;;46.42;;
46411;SDS011;32113;42.012;24.870;2023-04-03T15:57:50;123.50;;;72.47;;
46411;SDS011;32113;42.012;24.870;2023-04-03T16:00:16;64.53;;;36.20;;
46411;SDS011;32113;42.012;24.870;2023-04-03T16:02:46;227.20;;;167.55;;
46411;SDS011;32113;42.012;24.870;2023-04-03T16:05:13;38.65;;;31.83;;
46411;SDS011;32113;42.012;24.870;2023-04-03T16:07:42;25.90;;;16.33;;
46411;SDS011;32113;42.012;24.870;2023-04-03T16:10:08;22.42;;;13.40;;
46411;SDS011;32113;42.012;24.870;2023-04-03T16:12:35;18.93;;;13.53;;
46411;SDS011;32113;42.012;24.870;2023-04-03T16:15:02;29.00;;;19.63;;
46411;SDS011;32113;42.012;24.870;2023-04-03T16:17:28;40.42;;;28.83;;
46411;SDS011;32113;42.012;24.870;2023-04-03T16:19:55;32.75;;;23.08;;
46411;SDS011;32113;42.012;24.870;2023-04-03T16:22:21;22.73;;;16.67;;
46411;SDS011;32113;42.012;24.870;2023-04-03T16:27:14;34.00;;;20.70;;
46411;SDS011;32113;42.012;24.870;2023-04-03T16:29:40;149.82;;;76.85;;
46411;SDS011;32113;42.012;24.870;2023-04-03T16:32:05;44.33;;;25.63;;
46411;SDS011;32113;42.012;24.870;2023-04-03T16:34:31;27.50;;;19.83;;
46411;SDS011;32113;42.012;24.870;2023-04-03T16:36:57;46.80;;;28.85;;
46411;SDS011;32113;42.012;24.870;2023-04-03T16:39:23;30.45;;;19.10;;
46411;SDS011;32113;42.012;24.870;2023-04-03T16:41:48;26.00;;;17.08;;
46411;SDS011;32113;42.012;24.870;2023-04-03T16:44:14;26.17;;;16.85;;
46411;SDS011;32113;42.012;24.870;2023-04-03T16:46:39;74.97;;;43.88;;
46411;SDS011;32113;42.012;24.870;2023-04-03T16:49:05;26.90;;;19.70;;
46411;SDS011;32113;42.012;24.870;2023-04-03T16:51:30;27.50;;;20.75;;
46411;SDS011;32113;42.012;24.870;2023-04-03T16:53:56;26.60;;;20.05;;
46411;SDS011;32113;42.012;24.870;2023-04-03T16:56:22;26.67;;;20.15;;
46411;SDS011;32113;42.012;24.870;2023-04-03T16:58:47;53.67;;;30.27;;
46411;SDS011;32113;42.012;24.870;2023-04-03T17:01:17;27.08;;;19.35;;
46411;SDS011;32113;42.012;24.870;2023-04-03T17:03:43;33.10;;;20.83;;
46411;SDS011;32113;42.012;24.870;2023-04-03T17:06:11;26.65;;;17.08;;